createdAt,value
2022-08-09T00:01:39.944Z,1.83
2022-08-09T00:04:34.186Z,1.40
2022-08-09T00:07:01.736Z,1.57
2022-08-09T00:09:29.812Z,1.93
2022-08-09T00:12:04.085Z,1.60
2022-08-09T00:14:38.098Z,1.53
2022-08-09T00:17:05.831Z,1.50
2022-08-09T00:19:34.070Z,1.63
2022-08-09T00:22:04.184Z,1.50
2022-08-09T00:24:32.094Z,1.70
2022-08-09T00:27:00.153Z,1.50
2022-08-09T00:30:09.913Z,1.97
2022-08-09T00:32:26.844Z,1.80
2022-08-09T00:34:54.123Z,1.60
2022-08-09T00:37:20.699Z,1.90
2022-08-09T00:40:13.195Z,1.80
2022-08-09T00:44:10.864Z,1.83
2022-08-09T00:45:21.097Z,1.90
2022-08-09T00:47:47.858Z,1.70
2022-08-09T00:50:15.147Z,1.47
2022-08-09T00:52:42.446Z,1.60
2022-08-09T00:55:10.325Z,1.67
2022-08-09T00:57:59.161Z,1.50
2022-08-09T01:00:27.058Z,1.50
2022-08-09T01:03:14.581Z,1.63
2022-08-09T01:05:53.307Z,1.50
2022-08-09T01:08:49.576Z,1.43
2022-08-09T01:11:33.603Z,2.00
2022-08-09T01:14:03.062Z,1.67
2022-08-09T01:16:36.583Z,2.00
2022-08-09T01:19:40.023Z,1.87
2022-08-09T01:22:40.768Z,1.50
2022-08-09T01:25:41.808Z,1.70
2022-08-09T01:28:10.411Z,1.73
2022-08-09T01:30:51.899Z,1.80
2022-08-09T01:33:29.845Z,1.70
2022-08-09T01:36:13.486Z,1.60
2022-08-09T01:38:46.414Z,2.10
2022-08-09T01:41:25.735Z,1.80
2022-08-09T01:43:55.722Z,1.90
2022-08-09T01:46:27.325Z,1.77
2022-08-09T01:49:09.521Z,1.70
2022-08-09T01:51:39.117Z,2.00
2022-08-09T01:54:10.504Z,1.63
2022-08-09T01:56:42.287Z,1.90
2022-08-09T01:59:17.619Z,1.93
2022-08-09T02:01:58.528Z,1.60
2022-08-09T02:04:27.818Z,2.07
2022-08-09T02:07:18.299Z,1.83
2022-08-09T02:10:13.468Z,2.07
2022-08-09T02:12:42.649Z,2.00
2022-08-09T02:15:11.921Z,1.70
2022-08-09T02:18:00.651Z,1.73
2022-08-09T02:20:35.087Z,1.70
2022-08-09T02:23:11.991Z,2.00
2022-08-09T02:25:49.505Z,1.80
2022-08-09T02:28:25.181Z,1.90
2022-08-09T02:30:59.359Z,1.73
2022-08-09T02:33:58.769Z,2.27
2022-08-09T02:36:19.894Z,1.57
2022-08-09T02:38:50.693Z,1.70
2022-08-09T02:41:24.734Z,1.83
2022-08-09T02:43:54.871Z,1.80
2022-08-09T02:46:27.598Z,1.90
2022-08-09T02:48:58.768Z,1.83
2022-08-09T02:51:27.738Z,2.00
2022-08-09T02:54:02.826Z,1.70
2022-08-09T02:56:35.485Z,1.90
2022-08-09T02:59:05.481Z,1.80
2022-08-09T03:01:43.205Z,1.80
2022-08-09T03:04:28.907Z,1.93
2022-08-09T03:06:59.658Z,1.83
2022-08-09T03:09:42.850Z,1.80
2022-08-09T03:12:11.301Z,1.83
2022-08-09T03:14:42.190Z,2.00
2022-08-09T03:17:16.470Z,2.20
2022-08-09T03:19:58.680Z,1.83
2022-08-09T03:22:31.080Z,2.00
2022-08-09T03:25:13.620Z,1.90
2022-08-09T03:27:48.946Z,1.83
2022-08-09T03:30:29.759Z,1.70
2022-08-09T03:33:13.161Z,2.00
2022-08-09T03:36:13.716Z,1.90
2022-08-09T03:38:35.715Z,2.20
2022-08-09T03:41:04.278Z,2.00
2022-08-09T03:43:32.121Z,2.20
2022-08-09T03:46:05.197Z,1.93
2022-08-09T03:48:52.701Z,2.37
2022-08-09T03:51:56.366Z,1.80
2022-08-09T03:54:11.619Z,2.00
2022-08-09T03:56:41.011Z,2.43
2022-08-09T03:59:17.181Z,2.00
2022-08-09T04:01:50.508Z,1.70
2022-08-09T04:04:17.741Z,2.23
2022-08-09T04:06:48.927Z,2.13
2022-08-09T04:09:47.597Z,2.27
2022-08-09T04:12:11.940Z,2.30
2022-08-09T04:15:01.351Z,2.00
2022-08-09T04:17:30.121Z,1.77
2022-08-09T04:19:58.762Z,2.00
2022-08-09T04:22:29.661Z,2.10
2022-08-09T04:24:58.873Z,2.20
2022-08-09T04:27:25.760Z,2.17
2022-08-09T04:29:55.847Z,2.30
2022-08-09T04:32:23.589Z,2.40
2022-08-09T04:34:58.775Z,2.20
2022-08-09T04:37:46.095Z,2.27
2022-08-09T04:40:18.973Z,2.20
2022-08-09T04:42:55.662Z,2.20
2022-08-09T04:45:23.978Z,2.43
2022-08-09T04:47:59.138Z,1.83
2022-08-09T04:50:33.645Z,2.07
2022-08-09T04:53:13.452Z,2.00
2022-08-09T04:55:52.764Z,1.83
2022-08-09T04:58:26.439Z,1.90
2022-08-09T05:00:54.400Z,1.97
2022-08-09T05:03:40.235Z,2.00
2022-08-09T05:06:09.782Z,2.40
2022-08-09T05:08:38.273Z,2.23
2022-08-09T05:11:06.791Z,2.70
2022-08-09T05:13:38.664Z,1.90
2022-08-09T05:16:10.084Z,2.00
2022-08-09T05:18:50.690Z,2.10
2022-08-09T05:21:30.004Z,2.47
2022-08-09T05:24:01.243Z,2.70
2022-08-09T05:26:45.324Z,2.43
2022-08-09T05:29:22.139Z,2.43
2022-08-09T05:31:57.328Z,2.17
2022-08-09T05:34:32.519Z,1.93
2022-08-09T05:37:06.627Z,2.00
2022-08-09T05:39:42.820Z,2.20
2022-08-09T05:42:18.004Z,2.23
2022-08-09T05:44:53.099Z,2.07
2022-08-09T05:47:21.371Z,2.40
2022-08-09T05:50:30.973Z,2.40
2022-08-09T05:52:38.493Z,2.27
2022-08-09T05:55:07.127Z,2.47
2022-08-09T05:57:55.697Z,2.10
2022-08-09T06:00:23.443Z,2.53
2022-08-09T06:02:54.117Z,2.50
2022-08-09T06:05:30.578Z,2.53
2022-08-09T06:08:09.185Z,2.60
2022-08-09T06:10:38.351Z,2.40
2022-08-09T06:13:20.150Z,2.50
2022-08-09T06:15:51.554Z,2.17
2022-08-09T06:18:19.337Z,2.43
2022-08-09T06:20:54.658Z,2.10
2022-08-09T06:23:26.403Z,1.93
2022-08-09T06:26:12.585Z,2.30
2022-08-09T06:28:39.209Z,2.60
2022-08-09T06:31:10.178Z,2.60
2022-08-09T06:33:40.579Z,2.30
2022-08-09T06:36:08.446Z,2.30
2022-08-09T06:38:37.744Z,2.23
2022-08-09T06:41:18.304Z,2.23
2022-08-09T06:43:46.892Z,2.10
2022-08-09T06:46:39.705Z,2.10
2022-08-09T06:49:00.645Z,2.20
2022-08-09T06:51:28.024Z,2.70
2022-08-09T06:53:55.324Z,2.73
2022-08-09T06:56:21.967Z,2.30
2022-08-09T07:00:48.871Z,2.20
2022-08-09T07:01:57.866Z,2.20
2022-08-09T07:04:27.104Z,2.50
2022-08-09T07:07:00.512Z,2.20
2022-08-09T07:09:57.105Z,2.23
2022-08-09T07:12:17.940Z,2.10
2022-08-09T07:14:51.349Z,2.50
2022-08-09T07:17:19.978Z,2.27
2022-08-09T07:19:48.206Z,2.17
2022-08-09T07:22:18.349Z,2.23
2022-08-09T07:24:49.466Z,2.07
2022-08-09T07:27:26.206Z,2.10
2022-08-09T07:30:01.929Z,2.10
2022-08-09T07:32:32.273Z,2.40
2022-08-09T07:35:02.700Z,1.90
2022-08-09T07:37:29.579Z,2.27
2022-08-09T07:39:56.318Z,1.90
2022-08-09T07:42:32.460Z,1.90
2022-08-09T07:45:01.814Z,2.00
2022-08-09T07:47:49.253Z,1.97
2022-08-09T07:50:21.106Z,2.00
2022-08-09T07:53:03.081Z,1.87
2022-08-09T07:55:41.767Z,2.00
2022-08-09T07:58:18.680Z,2.17
2022-08-09T08:00:55.673Z,2.07
2022-08-09T08:03:26.811Z,2.00
2022-08-09T08:05:58.255Z,2.30
2022-08-09T08:09:02.218Z,2.07
2022-08-09T08:12:09.868Z,1.87
2022-08-09T08:13:58.962Z,2.10
2022-08-09T08:16:31.997Z,2.47
2022-08-09T08:18:59.612Z,2.40
2022-08-09T08:21:30.242Z,2.20
2022-08-09T08:23:56.825Z,1.90
2022-08-09T08:26:26.587Z,1.90
2022-08-09T08:29:08.847Z,2.30
2022-08-09T08:32:02.220Z,2.00
2022-08-09T08:34:25.206Z,1.80
2022-08-09T08:36:52.331Z,2.00
2022-08-09T08:39:18.958Z,2.20
2022-08-09T08:41:51.605Z,1.90
2022-08-09T08:44:23.068Z,2.23
2022-08-09T08:47:03.190Z,2.20
2022-08-09T08:49:48.534Z,2.10
2022-08-09T08:55:05.766Z,2.07
2022-08-09T08:57:35.091Z,2.07
2022-08-09T09:00:08.296Z,2.10
2022-08-09T09:02:46.854Z,2.20
2022-08-09T09:05:59.020Z,2.17
2022-08-09T09:08:29.764Z,2.07
2022-08-09T09:11:03.666Z,2.10
2022-08-09T09:13:47.391Z,2.40
2022-08-09T09:16:31.117Z,1.93
2022-08-09T09:19:22.649Z,2.20
2022-08-09T09:22:05.258Z,2.30
2022-08-09T09:24:40.422Z,2.20
2022-08-09T09:27:22.134Z,2.30
2022-08-09T09:30:27.361Z,2.20
2022-08-09T09:33:15.498Z,2.83
2022-08-09T09:36:01.470Z,2.40
2022-08-09T09:38:47.828Z,2.50
2022-08-09T09:41:23.494Z,2.40
2022-08-09T09:44:10.940Z,2.90
2022-08-09T09:46:42.206Z,2.70
2022-08-09T09:49:12.455Z,2.47
2022-08-09T09:51:40.939Z,2.63
2022-08-09T09:54:19.027Z,2.30
2022-08-09T09:56:53.282Z,2.40
2022-08-09T09:59:36.297Z,2.50
2022-08-09T10:02:02.891Z,2.17
2022-08-09T10:04:31.026Z,2.80
2022-08-09T10:06:58.007Z,2.57
2022-08-09T10:09:25.487Z,2.30
2022-08-09T10:12:14.876Z,2.53
2022-08-09T10:14:49.943Z,2.33
2022-08-09T10:17:38.874Z,2.60
2022-08-09T10:20:27.788Z,2.20
2022-08-09T10:23:20.199Z,2.63
2022-08-09T10:26:05.950Z,2.47
2022-08-09T10:28:36.661Z,2.50
2022-08-09T10:34:10.790Z,2.60
2022-08-09T10:36:39.883Z,2.73
2022-08-09T10:39:16.098Z,2.80
2022-08-09T10:41:47.979Z,2.73
2022-08-09T10:44:19.012Z,2.70
2022-08-09T10:48:11.953Z,2.27
2022-08-09T10:50:02.452Z,2.33
2022-08-09T10:53:04.389Z,2.40
2022-08-09T10:55:55.068Z,2.40
2022-08-09T10:58:37.270Z,2.70
2022-08-09T11:03:02.408Z,2.40
2022-08-09T11:04:20.146Z,2.17
2022-08-09T11:07:03.345Z,2.03
2022-08-09T11:09:47.967Z,2.60
2022-08-09T11:12:26.428Z,2.50
2022-08-09T11:15:19.053Z,2.47
2022-08-09T11:17:53.650Z,2.40
2022-08-09T11:20:39.554Z,2.20
2022-08-09T11:23:07.285Z,2.23
2022-08-09T11:25:47.942Z,2.47
2022-08-09T11:28:54.439Z,2.50
2022-08-09T11:32:00.699Z,2.30
2022-08-09T11:34:44.689Z,1.93
2022-08-09T11:37:25.973Z,2.00
2022-08-09T11:40:04.277Z,2.20
2022-08-09T11:42:43.407Z,2.30
2022-08-09T11:45:23.360Z,2.43
2022-08-09T11:48:26.306Z,2.40
2022-08-09T11:51:19.400Z,2.70
2022-08-09T11:54:28.848Z,2.40
2022-08-09T11:57:47.933Z,2.27
2022-08-09T12:00:29.691Z,2.17
2022-08-09T12:02:59.338Z,2.70
2022-08-09T12:05:37.874Z,2.37
2022-08-09T12:08:12.180Z,2.50
2022-08-09T12:10:52.992Z,2.40
2022-08-09T12:14:07.263Z,2.70
2022-08-09T12:16:30.469Z,2.43
2022-08-09T12:18:59.441Z,2.40
2022-08-09T12:21:38.623Z,2.17
2022-08-09T12:24:10.160Z,2.50
2022-08-09T12:28:58.461Z,2.40
2022-08-09T12:29:43.993Z,2.27
2022-08-09T12:32:27.055Z,2.27
2022-08-09T12:35:04.811Z,2.40
2022-08-09T12:37:49.845Z,2.60
2022-08-09T12:40:18.596Z,3.00
2022-08-09T12:42:46.595Z,2.50
2022-08-09T12:45:34.931Z,2.53
2022-08-09T12:48:19.935Z,2.03
2022-08-09T12:50:55.071Z,2.30
2022-08-09T12:53:40.732Z,2.17
2022-08-09T12:56:39.267Z,2.53
2022-08-09T12:59:08.763Z,2.23
2022-08-09T13:01:38.598Z,2.63
2022-08-09T13:04:36.293Z,2.00
2022-08-09T13:07:19.714Z,2.57
2022-08-09T13:10:04.751Z,2.23
2022-08-09T13:12:32.261Z,1.93
2022-08-09T13:15:09.861Z,2.00
2022-08-09T13:18:03.806Z,2.47
2022-08-09T13:20:37.133Z,2.20
2022-08-09T13:24:17.158Z,2.10
2022-08-09T13:25:54.790Z,2.00
2022-08-09T13:28:33.807Z,2.70
2022-08-09T13:32:12.464Z,2.57
2022-08-09T13:33:57.208Z,2.10
2022-08-09T13:36:40.706Z,2.30
2022-08-09T13:41:46.063Z,2.07
2022-08-09T13:42:13.717Z,1.93
2022-08-09T13:44:45.827Z,2.50
2022-08-09T13:47:31.445Z,2.30
2022-08-09T13:50:18.244Z,2.00
2022-08-09T13:52:57.482Z,2.20
2022-08-09T13:55:24.329Z,2.40
2022-08-09T13:57:58.327Z,2.30
2022-08-09T14:00:28.361Z,2.13
2022-08-09T14:03:03.809Z,2.30
2022-08-09T14:05:57.176Z,2.67
2022-08-09T14:08:29.959Z,1.90
2022-08-09T14:10:57.894Z,2.00
2022-08-09T14:14:16.305Z,2.00
2022-08-09T14:16:16.372Z,2.03
2022-08-09T14:18:50.108Z,2.50
2022-08-09T14:21:22.661Z,2.40
2022-08-09T14:23:55.283Z,2.20
2022-08-09T14:26:31.749Z,2.20
2022-08-09T14:29:02.122Z,2.07
2022-08-09T14:31:35.841Z,2.20
2022-08-09T14:34:17.321Z,2.00
2022-08-09T14:36:44.486Z,2.30
2022-08-09T14:39:11.731Z,2.07
2022-08-09T14:41:41.835Z,2.33
2022-08-09T14:44:11.352Z,2.37
2022-08-09T14:47:03.046Z,2.00
2022-08-09T14:49:26.250Z,1.87
2022-08-09T14:51:58.451Z,2.20
2022-08-09T14:54:28.182Z,2.07
2022-08-09T14:56:57.673Z,2.00
2022-08-09T14:59:28.426Z,1.77
2022-08-09T15:01:55.935Z,1.80
2022-08-09T15:04:23.610Z,2.40
2022-08-09T15:06:51.413Z,2.53
2022-08-09T15:10:04.151Z,2.20
2022-08-09T15:12:07.995Z,2.27
2022-08-09T15:14:38.195Z,1.93
2022-08-09T15:17:07.604Z,2.60
2022-08-09T15:19:36.658Z,1.80
2022-08-09T15:22:03.864Z,2.20
2022-08-09T15:24:32.219Z,2.07
2022-08-09T15:26:59.454Z,2.13
2022-08-09T15:30:56.298Z,2.10
2022-08-09T15:32:29.358Z,2.20
2022-08-09T15:35:00.867Z,2.33
2022-08-09T15:37:56.825Z,1.80
2022-08-09T15:40:31.928Z,2.03
2022-08-09T15:42:59.240Z,2.20
2022-08-09T15:45:29.512Z,1.53
2022-08-09T15:48:06.509Z,1.90
2022-08-09T15:50:44.036Z,1.70
2022-08-09T15:54:02.057Z,2.20
2022-08-09T15:56:21.419Z,2.43
2022-08-09T15:58:44.973Z,1.90
2022-08-09T16:01:13.289Z,1.93
2022-08-09T16:03:41.540Z,2.10
2022-08-09T16:06:32.808Z,2.10
2022-08-09T16:08:56.620Z,2.30
2022-08-09T16:11:29.976Z,1.80
2022-08-09T16:14:02.844Z,1.87
2022-08-09T16:16:34.782Z,1.97
2022-08-09T16:19:07.755Z,1.60
2022-08-09T16:21:35.741Z,1.70
2022-08-09T16:24:04.893Z,2.00
2022-08-09T16:26:33.552Z,1.83
2022-08-09T16:29:01.660Z,2.03
2022-08-09T16:32:11.163Z,2.00
2022-08-09T16:34:24.317Z,1.50
2022-08-09T16:36:50.962Z,2.00
2022-08-09T16:39:17.897Z,1.47
2022-08-09T16:42:04.187Z,1.87
2022-08-09T16:44:32.211Z,1.80
2022-08-09T16:47:04.059Z,1.70
2022-08-09T16:50:29.716Z,1.80
2022-08-09T16:52:32.781Z,1.33
2022-08-09T16:54:59.547Z,1.80
2022-08-09T16:57:26.138Z,1.50
2022-08-09T17:00:13.944Z,1.90
2022-08-09T17:02:42.676Z,1.70
2022-08-09T17:05:14.218Z,1.60
2022-08-09T17:08:43.457Z,1.60
2022-08-09T17:10:33.842Z,1.40
2022-08-09T17:13:01.439Z,2.07
2022-08-09T17:15:31.089Z,1.60
2022-08-09T17:18:15.358Z,1.90
2022-08-09T17:20:46.650Z,1.97
2022-08-09T17:23:19.046Z,1.57
2022-08-09T17:25:52.765Z,1.57
2022-08-09T17:28:19.977Z,1.33
2022-08-09T17:30:47.773Z,1.57
2022-08-09T17:33:21.885Z,1.60
2022-08-09T17:35:49.764Z,1.60
2022-08-09T17:38:32.253Z,1.40
2022-08-09T17:41:00.526Z,1.30
2022-08-09T17:43:34.250Z,1.30
2022-08-09T17:46:06.201Z,1.30
2022-08-09T17:48:38.857Z,1.13
2022-08-09T17:51:19.460Z,1.37
2022-08-09T17:53:52.815Z,1.20
2022-08-09T17:56:32.347Z,1.67
2022-08-09T17:59:09.554Z,1.13
2022-08-09T18:02:06.434Z,1.20
2022-08-09T18:04:27.792Z,1.20
2022-08-09T18:06:55.791Z,1.63
2022-08-09T18:09:25.230Z,1.00
2022-08-09T18:12:17.650Z,1.30
2022-08-09T18:14:49.704Z,1.20
2022-08-09T18:17:27.480Z,1.27
2022-08-09T18:20:56.291Z,1.33
2022-08-09T18:22:55.063Z,1.20
2022-08-09T18:25:21.721Z,1.50
2022-08-09T18:28:21.675Z,1.50
2022-08-09T18:30:54.981Z,0.97
2022-08-09T18:33:23.176Z,1.10
2022-08-09T18:36:00.152Z,1.23
2022-08-09T18:38:27.386Z,1.40
2022-08-09T18:40:55.327Z,1.10
2022-08-09T18:43:23.232Z,1.13
2022-08-09T18:46:51.089Z,1.10
2022-08-09T18:48:36.870Z,1.10
2022-08-09T18:51:03.856Z,1.33
2022-08-09T18:53:56.372Z,1.23
2022-08-09T18:56:20.076Z,1.27
2022-08-09T18:58:55.511Z,1.10
2022-08-09T19:01:22.696Z,0.90
2022-08-09T19:04:01.412Z,1.10
2022-08-09T19:06:38.677Z,1.23
2022-08-09T19:09:07.085Z,1.23
2022-08-09T19:11:37.750Z,1.10
2022-08-09T19:14:08.608Z,1.20
2022-08-09T19:16:36.333Z,1.00
2022-08-09T19:19:21.280Z,1.37
2022-08-09T19:22:06.653Z,1.20
2022-08-09T19:24:38.332Z,1.30
2022-08-09T19:27:16.241Z,1.10
2022-08-09T19:30:23.069Z,1.03
2022-08-09T19:32:31.609Z,1.40
2022-08-09T19:35:00.160Z,1.20
2022-08-09T19:37:26.758Z,1.20
2022-08-09T19:40:04.347Z,1.37
2022-08-09T19:42:32.332Z,1.13
2022-08-09T19:44:59.697Z,1.20
2022-08-09T19:47:27.084Z,0.83
2022-08-09T19:50:07.498Z,1.23
2022-08-09T19:52:49.644Z,1.23
2022-08-09T19:55:31.043Z,1.03
2022-08-09T19:58:07.179Z,1.10
2022-08-09T20:00:45.374Z,1.87
2022-08-09T20:04:18.747Z,1.30
2022-08-09T20:05:59.563Z,1.20
2022-08-09T20:08:35.119Z,1.20
2022-08-09T20:11:04.091Z,1.30
2022-08-09T20:13:32.280Z,1.20
2022-08-09T20:16:35.159Z,1.20
2022-08-09T20:19:41.948Z,1.33
2022-08-09T20:21:54.791Z,1.40
2022-08-09T20:24:31.811Z,1.10
2022-08-09T20:27:01.702Z,1.07
2022-08-09T20:29:32.609Z,0.90
2022-08-09T20:32:30.374Z,1.13
2022-08-09T20:34:51.185Z,1.23
2022-08-09T20:37:21.530Z,1.30
2022-08-09T20:40:14.940Z,1.20
2022-08-09T20:42:37.952Z,1.00
2022-08-09T20:46:00.077Z,1.20
2022-08-09T20:47:54.039Z,1.40
2022-08-09T20:50:47.310Z,1.40
2022-08-09T20:53:34.972Z,1.30
2022-08-09T20:56:00.711Z,1.20
2022-08-09T20:58:32.405Z,1.30
2022-08-09T21:01:13.633Z,1.40
2022-08-09T21:05:48.720Z,1.20
2022-08-09T21:06:27.799Z,1.50
2022-08-09T21:08:58.289Z,1.23
2022-08-09T21:14:12.530Z,1.47
2022-08-09T21:16:39.170Z,1.33
2022-08-09T21:20:16.985Z,1.43
2022-08-09T21:21:57.673Z,1.13
2022-08-09T21:24:28.595Z,1.60
2022-08-09T21:26:55.712Z,1.37
2022-08-09T21:29:22.825Z,1.20
2022-08-09T21:31:50.045Z,1.40
2022-08-09T21:34:28.489Z,1.33
2022-08-09T21:36:56.584Z,1.70
2022-08-09T21:39:27.928Z,1.07
2022-08-09T21:42:04.477Z,1.20
2022-08-09T21:44:35.337Z,1.30
2022-08-09T21:47:07.868Z,1.30
2022-08-09T21:49:39.804Z,1.13
2022-08-09T21:52:08.057Z,1.60
2022-08-09T21:54:43.346Z,1.80
2022-08-09T21:57:37.693Z,1.60
2022-08-09T21:59:59.731Z,1.70
2022-08-09T22:02:35.976Z,1.60
2022-08-09T22:05:17.122Z,1.80
2022-08-09T22:07:51.793Z,1.70
2022-08-09T22:10:22.864Z,1.70
2022-08-09T22:12:52.158Z,1.50
2022-08-09T22:15:20.489Z,1.97
2022-08-09T22:17:50.673Z,1.37
2022-08-09T22:20:21.991Z,1.40
2022-08-09T22:22:54.297Z,1.63
2022-08-09T22:26:08.139Z,1.30
2022-08-09T22:28:07.955Z,1.60
2022-08-09T22:30:35.021Z,1.50
2022-08-09T22:33:03.768Z,1.43
2022-08-09T22:36:00.852Z,1.60
2022-08-09T22:38:23.725Z,1.40
2022-08-09T22:40:57.822Z,1.50
2022-08-09T22:44:02.426Z,1.50
2022-08-09T22:48:14.953Z,1.83
2022-08-09T22:48:59.912Z,1.77
2022-08-09T22:51:29.051Z,1.90
2022-08-09T22:54:02.751Z,1.83
2022-08-09T22:56:34.036Z,1.60
2022-08-09T22:59:05.838Z,1.60
2022-08-09T23:01:49.894Z,1.90
2022-08-09T23:04:16.535Z,1.97
2022-08-09T23:07:02.949Z,1.70
2022-08-09T23:09:30.185Z,1.90
2022-08-09T23:12:02.731Z,1.67
2022-08-09T23:14:30.330Z,1.80
2022-08-09T23:17:08.141Z,1.63
2022-08-09T23:20:06.740Z,1.90
2022-08-09T23:22:21.718Z,1.50
2022-08-09T23:24:48.847Z,1.40
2022-08-09T23:27:15.710Z,1.70
2022-08-09T23:29:42.630Z,1.77
2022-08-09T23:32:09.799Z,1.80
2022-08-09T23:34:36.874Z,1.60
2022-08-09T23:37:04.868Z,1.70
2022-08-09T23:39:31.746Z,1.70
2022-08-09T23:41:58.847Z,1.50
2022-08-09T23:44:25.493Z,1.47
2022-08-09T23:46:57.173Z,1.30
2022-08-09T23:49:25.039Z,1.70
2022-08-09T23:51:52.452Z,1.90
2022-08-09T23:54:19.751Z,1.47
2022-08-09T23:56:54.043Z,1.83
2022-08-09T23:59:23.134Z,1.70
